Dallas, TX

12:24 PM CDT en Agosto 26, 2016 (GMT -0500)
Victory Park | | Change Station

Alt 417 ft 32.79 °N, 96.81 °W | Updated 4 minutes ago

Mostly Cloudy
Muy nublado
90.5 ° F
Sensación térmica 97 ° F
N
2.2
Viento Variable Viento desde SSO

Hoy
Alta -- | Baja -- ° F
--% Posibilidad de precipitaciones
Ayer
Alta -- | Baja -- ° F
Precip. -- pul
Presión 30.04 pul
Visibilidad 10.0 Millas
Nubes Baja 2800 ft
Nubes dispersas 12000 ft
Nubes dispersas 20000 ft
Muy nublado 25000 ft
Índice de calor 97 ° F
Punto de rocío 71 ° F
Humedad 53%
Precipitaciones pul
Espesor de la nieve No disponible.
6:58 AM 7:58 PM
Creciente menguante, 33% visible
METAR KDAL 261653Z 14008KT 10SM FEW028TCU SCT120 SCT200 BKN250 31/23 A3006 RMK AO2 SLP171 CB DSNT SW-W STNRY TCU NW T03060233 $
Presión 30.04 pul
Visibilidad 10.0 Millas
Nubes Baja 2800 ft
Nubes dispersas 12000 ft
Nubes dispersas 20000 ft
Muy nublado 25000 ft
Índice de calor 97 ° F
Punto de rocío 71 ° F
Humedad 53%
Precipitaciones pul
Espesor de la nieve No disponible.
6:58 AM 7:58 PM
Creciente menguante, 33% visible
METAR KDAL 261653Z 14008KT 10SM FEW028TCU SCT120 SCT200 BKN250 31/23 A3006 RMK AO2 SLP171 CB DSNT SW-W STNRY TCU NW T03060233 $

10-Day Weather Forecast

Almanac

Astronomía

Aug. 26, 2016 Salida Puesta
Hora real
Crepúsculo civil
Crepúsculo náutico
Crepúsculo astronómico
Luna
Horas de luz
Horas de luz
Tomorrow will be .
, % of the Moon is Illuminated

Extremos de hoy

Máximos del estado Bajos del estado

Community

WunderPhotos

Upload Photos

1,935,145 ¡fotos cargadas!

WunderBlog® & News

Nearby

Calidad del aire

  Calidad del aire Índice AQ Contaminante
Not available.

Grosos de nieve

Estación Profundido Altura

Actividad de terremotos

Ciudad Distance Mag. Tiempo y dato
Magnitud mínima muestra es 2,5.

Temperaturas de aguas costeras

Lugar Temperatura

Stations

Estaciones meteorológicas cercanas

Ubicación de la estación Temp. Vientos helados Punto de rocío Humedad Viento Precip. Alt Actualizado Tipo
                   

Watches & Warnings

There are currently no watches in effect.